Time;durP1;ratioP1;P1;durP2;ratioP2;P2;SDS_P1;SDS_P2;PMS_P1;PMS_P2;Temp;Humidity;BMP_temperature;BMP_pressure;BME280_temperature;BME280_humidity;BME280_pressure;Samples;Min_cycle;Max_cycle;Signal;HPM_P1;HPM_P2
2021/11/23 00:01:28;;;;;;;5.27;3.00;;;;;;;;;;5078962;28;20457;-73
2021/11/23 00:03:56;;;;;;;9.93;3.80;;;;;;;;;;5079231;28;20457;-73
2021/11/23 00:06:24;;;;;;;4.10;2.43;;;;;;;;;;5079848;28;20736;-73
2021/11/23 00:08:52;;;;;;;9.37;3.83;;;;;;;;;;5078299;28;20492;-73
2021/11/23 00:11:21;;;;;;;5.90;3.30;;;;;;;;;;5079307;28;20459;-72
2021/11/23 00:13:50;;;;;;;7.80;4.03;;;;;;;;;;5079102;28;20738;-72
2021/11/23 00:16:18;;;;;;;7.63;3.67;;;;;;;;;;5078242;28;20471;-73
2021/11/23 00:18:46;;;;;;;6.47;3.33;;;;;;;;;;5079083;28;20537;-73
2021/11/23 00:21:14;;;;;;;5.60;3.13;;;;;;;;;;5078766;28;20453;-73
2021/11/23 00:23:41;;;;;;;6.83;3.70;;;;;;;;;;5078828;28;20449;-73
2021/11/23 00:26:09;;;;;;;6.40;4.10;;;;;;;;;;5077896;28;20499;-73
2021/11/23 00:28:39;;;;;;;4.30;2.70;;;;;;;;;;5078496;28;20487;-74
2021/11/23 00:31:07;;;;;;;3.77;3.10;;;;;;;;;;5078064;28;20737;-74
2021/11/23 00:33:40;;;;;;;4.30;3.10;;;;;;;;;;5079601;28;20723;-74
2021/11/23 00:36:08;;;;;;;5.67;2.40;;;;;;;;;;5077637;28;20477;-73
2021/11/23 00:38:41;;;;;;;4.50;2.90;;;;;;;;;;5077570;28;20457;-73
2021/11/23 00:41:09;;;;;;;4.43;3.30;;;;;;;;;;5078336;28;20503;-73
2021/11/23 00:43:37;;;;;;;5.93;2.60;;;;;;;;;;5078195;28;20472;-73
2021/11/23 00:46:06;;;;;;;4.87;2.60;;;;;;;;;;5077617;28;20452;-73
2021/11/23 00:48:34;;;;;;;6.40;2.77;;;;;;;;;;5077975;28;20528;-73
2021/11/23 00:51:01;;;;;;;6.30;2.70;;;;;;;;;;5076480;28;20558;-73
2021/11/23 00:53:29;;;;;;;6.20;2.47;;;;;;;;;;5077085;28;20537;-73
2021/11/23 00:55:57;;;;;;;4.97;2.00;;;;;;;;;;5076653;28;20570;-73
2021/11/23 00:58:27;;;;;;;6.33;2.70;;;;;;;;;;5076012;28;20464;-74
2021/11/23 01:00:55;;;;;;;3.40;2.30;;;;;;;;;;5076602;28;20484;-72
2021/11/23 01:03:25;;;;;;;4.50;2.57;;;;;;;;;;5076925;28;20468;-73
2021/11/23 01:05:54;;;;;;;3.30;2.10;;;;;;;;;;5075573;28;20530;-73
2021/11/23 01:08:22;;;;;;;6.30;2.50;;;;;;;;;;5075581;28;20583;-73
2021/11/23 01:10:50;;;;;;;6.80;2.10;;;;;;;;;;5076586;28;20480;-73
2021/11/23 01:13:18;;;;;;;3.70;1.87;;;;;;;;;;5076228;28;20460;-73
2021/11/23 01:15:46;;;;;;;2.73;1.90;;;;;;;;;;5076285;28;20452;-73
2021/11/23 01:18:14;;;;;;;6.13;2.00;;;;;;;;;;5076868;28;20479;-73
2021/11/23 01:20:44;;;;;;;3.97;2.27;;;;;;;;;;5078280;28;20563;-73
2021/11/23 01:23:11;;;;;;;5.53;2.70;;;;;;;;;;5077498;28;20475;-73
2021/11/23 01:25:39;;;;;;;3.80;1.60;;;;;;;;;;5077393;28;20547;-73
2021/11/23 01:28:07;;;;;;;3.10;1.97;;;;;;;;;;5077304;28;20983;-73
2021/11/23 01:30:35;;;;;;;5.43;1.90;;;;;;;;;;5077109;28;20456;-73
2021/11/23 01:33:06;;;;;;;6.13;2.67;;;;;;;;;;5076530;28;20460;-73
2021/11/23 01:35:33;;;;;;;5.90;2.43;;;;;;;;;;5075659;28;20515;-73
2021/11/23 01:38:03;;;;;;;8.43;3.20;;;;;;;;;;5076992;28;20474;-73
2021/11/23 01:40:31;;;;;;;8.17;2.50;;;;;;;;;;5076968;28;20452;-73
2021/11/23 01:42:59;;;;;;;4.67;2.03;;;;;;;;;;5076658;28;20466;-73
2021/11/23 01:45:36;;;;;;;5.53;2.67;;;;;;;;;;5076726;28;20750;-73
2021/11/23 01:48:04;;;;;;;4.10;2.80;;;;;;;;;;5076612;28;20518;-73
2021/11/23 01:50:32;;;;;;;9.23;3.23;;;;;;;;;;5077078;28;20475;-73
2021/11/23 01:53:02;;;;;;;6.60;2.40;;;;;;;;;;5077205;28;20467;-73
2021/11/23 01:55:34;;;;;;;9.03;3.37;;;;;;;;;;5077670;28;20914;-73
2021/11/23 01:58:02;;;;;;;4.80;2.57;;;;;;;;;;5076442;28;20448;-73
2021/11/23 02:00:30;;;;;;;9.17;2.53;;;;;;;;;;5076115;28;20456;-73
2021/11/23 02:02:58;;;;;;;4.50;2.73;;;;;;;;;;5076417;28;20574;-73
2021/11/23 02:05:26;;;;;;;4.33;2.67;;;;;;;;;;5076835;28;20453;-73
2021/11/23 02:07:54;;;;;;;8.43;3.37;;;;;;;;;;5076152;28;20587;-73
2021/11/23 02:10:21;;;;;;;7.50;3.50;;;;;;;;;;5076339;28;20537;-73
2021/11/23 02:12:51;;;;;;;3.40;2.50;;;;;;;;;;5076226;28;20456;-73
2021/11/23 02:15:19;;;;;;;7.43;3.83;;;;;;;;;;5076110;28;20837;-73
2021/11/23 02:17:47;;;;;;;5.80;3.50;;;;;;;;;;5079481;28;20510;-72
2021/11/23 02:20:17;;;;;;;5.40;3.43;;;;;;;;;;5080948;28;20452;-73
2021/11/23 02:22:45;;;;;;;11.00;4.10;;;;;;;;;;5080196;28;20877;-72
2021/11/23 02:25:13;;;;;;;8.43;3.87;;;;;;;;;;5080253;28;20543;-73
2021/11/23 02:27:42;;;;;;;9.40;3.37;;;;;;;;;;5080595;28;20587;-73
2021/11/23 02:30:10;;;;;;;7.53;4.17;;;;;;;;;;5080721;28;20747;-73
2021/11/23 02:32:39;;;;;;;10.13;3.93;;;;;;;;;;5081072;28;20551;-72
2021/11/23 02:35:08;;;;;;;5.53;2.80;;;;;;;;;;5080826;28;20547;-72
2021/11/23 02:37:41;;;;;;;4.10;3.53;;;;;;;;;;5080724;28;20466;-72
2021/11/23 02:40:10;;;;;;;7.47;4.73;;;;;;;;;;5080781;28;20852;-72
2021/11/23 02:42:38;;;;;;;9.93;4.37;;;;;;;;;;5080629;28;20918;-72
2021/11/23 02:45:06;;;;;;;6.33;4.80;;;;;;;;;;5081119;28;20471;-72
2021/11/23 02:47:38;;;;;;;4.60;3.00;;;;;;;;;;5081035;28;20464;-72
2021/11/23 02:50:06;;;;;;;8.53;5.00;;;;;;;;;;5080327;28;20866;-72
2021/11/23 02:52:34;;;;;;;7.57;4.13;;;;;;;;;;5080846;28;20474;-72
2021/11/23 02:55:05;;;;;;;9.27;5.07;;;;;;;;;;5080381;28;20449;-73
2021/11/23 02:57:35;;;;;;;12.87;7.00;;;;;;;;;;5080040;28;20471;-72
2021/11/23 03:00:05;;;;;;;8.50;5.07;;;;;;;;;;5079471;28;20456;-72
2021/11/23 03:02:33;;;;;;;12.27;5.03;;;;;;;;;;5080006;28;20457;-72
2021/11/23 03:05:01;;;;;;;8.60;5.60;;;;;;;;;;5080080;28;20455;-72
2021/11/23 03:07:29;;;;;;;11.73;5.77;;;;;;;;;;5079863;28;20479;-72
2021/11/23 03:09:57;;;;;;;10.90;6.23;;;;;;;;;;5079680;28;20868;-72
2021/11/23 03:12:27;;;;;;;5.60;4.83;;;;;;;;;;5080075;28;20460;-73
2021/11/23 03:14:55;;;;;;;8.47;5.67;;;;;;;;;;5080301;28;20452;-73
2021/11/23 03:17:23;;;;;;;7.13;6.20;;;;;;;;;;5079806;28;20547;-72
2021/11/23 03:19:51;;;;;;;7.63;5.00;;;;;;;;;;5079769;28;20875;-72
2021/11/23 03:22:19;;;;;;;9.27;5.50;;;;;;;;;;5079272;28;20464;-72
2021/11/23 03:24:47;;;;;;;7.07;5.47;;;;;;;;;;5080013;28;20753;-72
2021/11/23 03:27:16;;;;;;;5.90;4.17;;;;;;;;;;5079371;28;20959;-73
2021/11/23 03:29:45;;;;;;;9.40;6.03;;;;;;;;;;5079145;28;20484;-73
2021/11/23 03:32:13;;;;;;;7.27;6.53;;;;;;;;;;5080221;28;20471;-73
2021/11/23 03:34:42;;;;;;;10.70;7.40;;;;;;;;;;5079269;28;20459;-73
2021/11/23 03:37:11;;;;;;;6.37;5.10;;;;;;;;;;5079146;28;20872;-73
2021/11/23 03:39:39;;;;;;;6.60;4.87;;;;;;;;;;5079478;28;20453;-73
2021/11/23 03:42:08;;;;;;;9.33;7.10;;;;;;;;;;5079471;28;20506;-73
2021/11/23 03:44:36;;;;;;;12.10;6.80;;;;;;;;;;5079600;28;20448;-73
2021/11/23 03:47:09;;;;;;;9.93;7.27;;;;;;;;;;5079897;28;20518;-73
2021/11/23 03:49:37;;;;;;;10.77;7.23;;;;;;;;;;5078675;28;20604;-73
2021/11/23 03:52:05;;;;;;;6.00;4.17;;;;;;;;;;5079832;28;20463;-73
2021/11/23 03:54:33;;;;;;;13.37;7.40;;;;;;;;;;5079077;28;20532;-73
2021/11/23 03:57:01;;;;;;;9.83;7.37;;;;;;;;;;5078086;28;20460;-73
2021/11/23 03:59:28;;;;;;;15.37;6.90;;;;;;;;;;5078931;28;20948;-73
2021/11/23 04:01:56;;;;;;;13.20;7.87;;;;;;;;;;5079266;28;20541;-73
2021/11/23 04:04:25;;;;;;;10.40;6.43;;;;;;;;;;5079079;28;20956;-73
2021/11/23 04:06:53;;;;;;;8.10;6.57;;;;;;;;;;5078917;28;20460;-73
2021/11/23 04:09:21;;;;;;;8.73;7.03;;;;;;;;;;5078805;28;20828;-73
2021/11/23 04:11:48;;;;;;;9.30;7.20;;;;;;;;;;5079214;28;20847;-73
2021/11/23 04:14:16;;;;;;;9.70;7.37;;;;;;;;;;5078742;28;20528;-73
2021/11/23 04:16:44;;;;;;;12.63;7.00;;;;;;;;;;5079282;28;20453;-73
2021/11/23 04:19:11;;;;;;;9.80;6.57;;;;;;;;;;5078862;28;20850;-73
2021/11/23 04:21:41;;;;;;;9.10;6.47;;;;;;;;;;5078091;28;20525;-73
2021/11/23 04:24:09;;;;;;;9.03;7.13;;;;;;;;;;5078658;28;20511;-73
2021/11/23 04:26:36;;;;;;;5.57;3.97;;;;;;;;;;5078139;28;20841;-73
2021/11/23 04:29:04;;;;;;;11.63;6.83;;;;;;;;;;5078219;28;20611;-73
2021/11/23 04:31:32;;;;;;;6.90;6.03;;;;;;;;;;5078238;28;20463;-73
2021/11/23 04:34:00;;;;;;;10.60;6.13;;;;;;;;;;5078457;28;20460;-73
2021/11/23 04:36:28;;;;;;;9.17;6.43;;;;;;;;;;5078295;28;20460;-73
2021/11/23 04:38:57;;;;;;;7.20;5.17;;;;;;;;;;5077443;28;20478;-73
2021/11/23 04:41:25;;;;;;;9.50;6.60;;;;;;;;;;5078782;28;20830;-73
2021/11/23 04:43:53;;;;;;;13.23;6.27;;;;;;;;;;5079398;28;20487;-73
2021/11/23 04:46:21;;;;;;;8.20;6.33;;;;;;;;;;5077805;28;20517;-73
2021/11/23 04:48:49;;;;;;;8.67;5.63;;;;;;;;;;5079062;28;20503;-73
2021/11/23 04:51:16;;;;;;;9.67;5.93;;;;;;;;;;5078166;28;20747;-73
2021/11/23 04:53:44;;;;;;;8.80;6.20;;;;;;;;;;5078221;28;20522;-73
2021/11/23 04:56:14;;;;;;;10.97;7.00;;;;;;;;;;5078098;28;20456;-73
2021/11/23 04:58:42;;;;;;;14.93;7.13;;;;;;;;;;5077101;28;20806;-73
2021/11/23 05:01:10;;;;;;;7.40;5.40;;;;;;;;;;5077527;28;20453;-73
2021/11/23 05:03:40;;;;;;;7.70;5.60;;;;;;;;;;5078296;28;20703;-73
2021/11/23 05:06:08;;;;;;;10.60;7.53;;;;;;;;;;5077564;28;20452;-73
2021/11/23 05:08:36;;;;;;;13.70;6.33;;;;;;;;;;5078080;28;21102;-72
2021/11/23 05:11:04;;;;;;;15.80;7.27;;;;;;;;;;5077390;28;20560;-72
2021/11/23 05:13:33;;;;;;;7.30;5.87;;;;;;;;;;5077927;28;21019;-72
2021/11/23 05:16:01;;;;;;;7.77;5.57;;;;;;;;;;5077312;28;20500;-74
2021/11/23 05:18:29;;;;;;;8.53;6.40;;;;;;;;;;5078530;28;20593;-73
2021/11/23 05:20:56;;;;;;;13.40;6.33;;;;;;;;;;5073676;28;20468;-73
2021/11/23 05:23:24;;;;;;;12.70;6.70;;;;;;;;;;5058743;28;20940;-73
2021/11/23 05:25:54;;;;;;;13.93;5.97;;;;;;;;;;5058423;28;20551;-73
2021/11/23 05:28:22;;;;;;;17.03;7.03;;;;;;;;;;5058250;28;20473;-73
2021/11/23 05:30:52;;;;;;;11.27;5.60;;;;;;;;;;5057181;28;20550;-73
2021/11/23 05:33:20;;;;;;;11.27;6.80;;;;;;;;;;5057924;28;20556;-73
2021/11/23 05:35:50;;;;;;;8.20;6.27;;;;;;;;;;5056969;28;20539;-73
2021/11/23 05:38:19;;;;;;;16.80;6.17;;;;;;;;;;5057199;28;20912;-73
2021/11/23 05:40:47;;;;;;;11.80;6.20;;;;;;;;;;5057664;28;20461;-73
2021/11/23 05:43:17;;;;;;;10.97;6.47;;;;;;;;;;5058226;28;20878;-74
2021/11/23 05:45:45;;;;;;;9.30;5.93;;;;;;;;;;5058485;28;20708;-73
2021/11/23 05:48:15;;;;;;;11.87;7.60;;;;;;;;;;5058621;28;20504;-73
2021/11/23 05:50:43;;;;;;;9.10;5.47;;;;;;;;;;5056900;28;20511;-72
2021/11/23 05:53:11;;;;;;;9.43;6.00;;;;;;;;;;5058251;28;20551;-73
2021/11/23 05:55:38;;;;;;;10.70;7.20;;;;;;;;;;5057868;28;20454;-73
2021/11/23 05:58:06;;;;;;;15.30;8.10;;;;;;;;;;5058145;28;20457;-73
2021/11/23 06:00:34;;;;;;;11.47;6.90;;;;;;;;;;5057463;28;20472;-73
2021/11/23 06:03:02;;;;;;;9.50;5.87;;;;;;;;;;5057240;28;20530;-73
2021/11/23 06:05:31;;;;;;;9.97;6.13;;;;;;;;;;5056934;28;20548;-73
2021/11/23 06:07:59;;;;;;;8.63;5.87;;;;;;;;;;5057181;28;20497;-73
2021/11/23 06:10:27;;;;;;;10.10;6.40;;;;;;;;;;5057371;28;20484;-73
2021/11/23 06:12:57;;;;;;;12.63;9.00;;;;;;;;;;5056655;28;20758;-73
2021/11/23 06:15:25;;;;;;;9.30;5.73;;;;;;;;;;5058471;28;20923;-73
2021/11/23 06:18:00;;;;;;;17.60;9.20;;;;;;;;;;5057037;28;20465;-73
2021/11/23 06:20:29;;;;;;;10.53;6.90;;;;;;;;;;5055815;28;20476;-73
2021/11/23 06:23:00;;;;;;;8.00;6.43;;;;;;;;;;5054086;28;20453;-72
2021/11/23 06:25:28;;;;;;;12.87;6.60;;;;;;;;;;5057718;28;20469;-72
2021/11/23 06:27:56;;;;;;;11.73;5.50;;;;;;;;;;5056367;28;20503;-72
2021/11/23 06:30:25;;;;;;;13.00;7.77;;;;;;;;;;5054953;28;20493;-72
2021/11/23 06:32:52;;;;;;;8.50;5.90;;;;;;;;;;5054240;28;20549;-72
2021/11/23 06:35:23;;;;;;;12.57;7.73;;;;;;;;;;5054406;28;20903;-73
2021/11/23 06:37:52;;;;;;;11.93;7.43;;;;;;;;;;5055239;28;20854;-73
2021/11/23 06:40:22;;;;;;;11.57;6.47;;;;;;;;;;5054716;28;20986;-73
2021/11/23 06:42:49;;;;;;;8.47;5.57;;;;;;;;;;5055009;28;20789;-73
2021/11/23 06:45:17;;;;;;;13.03;6.43;;;;;;;;;;5054281;28;20481;-73
2021/11/23 06:47:46;;;;;;;10.13;6.47;;;;;;;;;;5058065;28;20449;-72
2021/11/23 06:50:14;;;;;;;8.23;5.80;;;;;;;;;;5058755;28;20480;-73
2021/11/23 06:52:42;;;;;;;9.83;7.03;;;;;;;;;;5073478;28;20457;-73
2021/11/23 06:55:10;;;;;;;8.87;5.60;;;;;;;;;;5075850;28;20464;-73
2021/11/23 06:57:40;;;;;;;10.80;6.90;;;;;;;;;;5072082;28;20865;-73
2021/11/23 07:00:09;;;;;;;8.37;6.77;;;;;;;;;;5074635;28;20806;-73
2021/11/23 07:02:40;;;;;;;14.40;7.87;;;;;;;;;;5078362;28;20466;-74
2021/11/23 07:05:08;;;;;;;7.83;5.13;;;;;;;;;;5078304;28;20741;-73
2021/11/23 07:07:36;;;;;;;12.30;6.77;;;;;;;;;;5078232;28;20456;-74
2021/11/23 07:10:06;;;;;;;13.80;7.10;;;;;;;;;;5078335;28;20488;-74
2021/11/23 07:12:34;;;;;;;10.50;5.83;;;;;;;;;;5079157;28;20460;-73
2021/11/23 07:15:07;;;;;;;13.30;7.17;;;;;;;;;;5079521;28;20467;-73
2021/11/23 07:17:35;;;;;;;12.27;9.03;;;;;;;;;;5078861;28;20452;-73
2021/11/23 07:20:02;;;;;;;9.93;8.13;;;;;;;;;;5080008;28;20857;-73
2021/11/23 07:22:30;;;;;;;13.23;7.63;;;;;;;;;;5077361;28;20460;-74
2021/11/23 07:24:58;;;;;;;11.50;6.00;;;;;;;;;;5077069;28;20522;-73
2021/11/23 07:27:26;;;;;;;11.07;6.07;;;;;;;;;;5072031;28;20471;-74
2021/11/23 07:29:54;;;;;;;10.80;7.20;;;;;;;;;;5059184;28;20496;-74
2021/11/23 07:32:27;;;;;;;17.57;9.87;;;;;;;;;;5058992;28;20476;-74
2021/11/23 07:34:56;;;;;;;12.87;6.90;;;;;;;;;;5057385;28;20453;-74
2021/11/23 07:37:26;;;;;;;11.13;6.77;;;;;;;;;;5058276;28;20557;-74
2021/11/23 07:39:54;;;;;;;7.63;4.60;;;;;;;;;;5059240;28;20473;-74
2021/11/23 07:42:23;;;;;;;11.93;7.10;;;;;;;;;;5057968;28;20749;-75
2021/11/23 07:44:51;;;;;;;10.30;6.03;;;;;;;;;;5060885;28;20464;-74
2021/11/23 07:47:19;;;;;;;7.57;6.07;;;;;;;;;;5078459;28;20526;-74
2021/11/23 07:49:49;;;;;;;11.80;5.10;;;;;;;;;;5078219;28;20500;-73
2021/11/23 07:52:17;;;;;;;8.70;5.27;;;;;;;;;;5077675;28;20471;-73
2021/11/23 07:54:48;;;;;;;11.00;5.40;;;;;;;;;;5075117;28;20519;-73
2021/11/23 07:57:16;;;;;;;9.07;6.23;;;;;;;;;;5077672;28;20468;-74
2021/11/23 07:59:46;;;;;;;9.87;5.83;;;;;;;;;;5078121;28;20464;-74
2021/11/23 08:02:14;;;;;;;13.70;6.23;;;;;;;;;;5061413;28;20532;-74
2021/11/23 08:04:42;;;;;;;9.63;6.83;;;;;;;;;;5057639;28;20461;-73
2021/11/23 08:07:11;;;;;;;10.97;7.57;;;;;;;;;;5057478;28;20453;-72
2021/11/23 08:09:39;;;;;;;8.40;5.00;;;;;;;;;;5056862;28;20554;-73
2021/11/23 08:12:10;;;;;;;12.30;7.83;;;;;;;;;;5057648;28;20552;-73
2021/11/23 08:14:41;;;;;;;14.60;7.13;;;;;;;;;;5056623;28;20943;-73
2021/11/23 08:17:08;;;;;;;8.37;5.27;;;;;;;;;;5057219;28;20531;-74
2021/11/23 08:19:36;;;;;;;8.50;4.87;;;;;;;;;;5057485;28;20457;-74
2021/11/23 08:22:04;;;;;;;9.83;5.23;;;;;;;;;;5057476;28;20497;-74
2021/11/23 08:24:34;;;;;;;11.80;5.37;;;;;;;;;;5057818;28;20895;-74
2021/11/23 08:27:02;;;;;;;7.47;3.90;;;;;;;;;;5057082;28;20468;-74
2021/11/23 08:29:30;;;;;;;7.97;5.10;;;;;;;;;;5055510;28;20917;-74
2021/11/23 08:31:58;;;;;;;13.73;5.50;;;;;;;;;;5058908;28;20453;-74
2021/11/23 08:37:08;;;;;;;9.33;5.30;;;;;;;;;;5056437;28;20454;-73
2021/11/23 08:39:37;;;;;;;7.73;4.27;;;;;;;;;;5056981;28;20454;-74
2021/11/23 08:42:08;;;;;;;8.40;5.00;;;;;;;;;;5057123;28;20540;-73
2021/11/23 08:44:36;;;;;;;17.00;9.83;;;;;;;;;;5062954;28;20553;-73
2021/11/23 08:47:04;;;;;;;12.20;8.27;;;;;;;;;;5066795;28;20445;-72
2021/11/23 08:49:35;;;;;;;14.00;9.93;;;;;;;;;;5075117;28;20460;-72
2021/11/23 08:52:02;;;;;;;8.27;5.43;;;;;;;;;;5072565;28;20721;-73
2021/11/23 08:54:34;;;;;;;12.10;5.43;;;;;;;;;;5075687;28;21039;-74
2021/11/23 08:57:05;;;;;;;10.70;6.50;;;;;;;;;;5073627;28;20856;-73
2021/11/23 08:59:34;;;;;;;13.93;5.50;;;;;;;;;;5066723;28;20464;-74
2021/11/23 09:02:03;;;;;;;13.47;6.27;;;;;;;;;;5059990;28;20808;-73
2021/11/23 09:04:33;;;;;;;10.70;5.87;;;;;;;;;;5060943;28;20470;-74
2021/11/23 09:07:03;;;;;;;10.43;6.70;;;;;;;;;;5063009;28;20468;-75
2021/11/23 09:09:34;;;;;;;12.23;5.30;;;;;;;;;;5058097;28;20798;-74
2021/11/23 09:12:11;;;;;;;10.50;5.50;;;;;;;;;;5063796;28;20458;-73
2021/11/23 09:14:40;;;;;;;13.97;6.20;;;;;;;;;;5073659;28;20471;-73
2021/11/23 09:17:11;;;;;;;13.87;6.03;;;;;;;;;;5074951;28;20456;-75
2021/11/23 09:19:42;;;;;;;9.43;3.93;;;;;;;;;;5062893;28;20832;-72
2021/11/23 09:22:10;;;;;;;11.23;3.90;;;;;;;;;;5056969;28;20464;-74
2021/11/23 09:24:41;;;;;;;12.63;5.80;;;;;;;;;;5059803;28;20462;-74
2021/11/23 09:27:19;;;;;;;17.70;7.93;;;;;;;;;;5059705;28;20538;-73
2021/11/23 09:29:48;;;;;;;13.97;6.40;;;;;;;;;;5067601;28;20445;-74
2021/11/23 09:32:16;;;;;;;8.50;5.30;;;;;;;;;;5072660;28;20823;-74
2021/11/23 09:34:46;;;;;;;8.60;4.83;;;;;;;;;;5075278;28;20594;-74
2021/11/23 09:37:19;;;;;;;10.07;5.00;;;;;;;;;;5065692;28;20503;-74
2021/11/23 09:39:47;;;;;;;12.17;5.77;;;;;;;;;;5070380;28;20461;-72
2021/11/23 09:42:26;;;;;;;6.90;4.50;;;;;;;;;;5056170;28;20851;-73
2021/11/23 09:44:56;;;;;;;8.40;5.90;;;;;;;;;;5067462;28;20503;-74
2021/11/23 09:47:27;;;;;;;7.00;4.43;;;;;;;;;;5075675;28;20456;-72
2021/11/23 09:49:55;;;;;;;8.67;6.50;;;;;;;;;;5076656;28;20515;-73
2021/11/23 09:52:23;;;;;;;14.27;5.37;;;;;;;;;;5076991;28;20459;-71
2021/11/23 09:54:51;;;;;;;8.10;4.77;;;;;;;;;;5070782;28;20467;-72
2021/11/23 09:57:23;;;;;;;6.03;4.00;;;;;;;;;;5076644;28;20464;-73
2021/11/23 09:59:52;;;;;;;11.27;6.57;;;;;;;;;;5076303;28;20468;-72
2021/11/23 10:02:26;;;;;;;5.13;3.33;;;;;;;;;;5075876;28;20471;-71
2021/11/23 10:05:01;;;;;;;7.83;4.03;;;;;;;;;;5057847;28;20458;-71
2021/11/23 10:07:44;;;;;;;5.27;3.33;;;;;;;;;;5055246;28;20485;-72
2021/11/23 10:10:14;;;;;;;8.40;3.67;;;;;;;;;;5054763;28;20892;-72
2021/11/23 10:12:53;;;;;;;8.33;4.20;;;;;;;;;;5064586;28;20477;-72
2021/11/23 10:15:23;;;;;;;6.60;4.00;;;;;;;;;;5059945;28;20640;-72
2021/11/23 10:17:52;;;;;;;4.80;2.43;;;;;;;;;;5054728;28;20449;-71
2021/11/23 10:20:34;;;;;;;6.03;3.10;;;;;;;;;;5054535;28;20457;-74
2021/11/23 10:23:25;;;;;;;8.33;3.40;;;;;;;;;;5057756;28;20463;-71
2021/11/23 10:25:54;;;;;;;5.97;3.13;;;;;;;;;;5065014;28;20469;-71
2021/11/23 10:28:26;;;;;;;4.37;2.40;;;;;;;;;;5062467;28;20529;-70
2021/11/23 10:30:54;;;;;;;5.90;2.67;;;;;;;;;;5055371;28;20489;-72
2021/11/23 10:33:37;;;;;;;4.67;3.03;;;;;;;;;;5060854;28;20540;-71
2021/11/23 10:36:10;;;;;;;6.47;3.27;;;;;;;;;;5064559;28;20713;-72
2021/11/23 10:39:19;;;;;;;6.27;2.83;;;;;;;;;;5072676;28;20476;-73
2021/11/23 10:41:51;;;;;;;17.90;4.77;;;;;;;;;;5080585;28;20836;-70
2021/11/23 10:44:24;;;;;;;6.20;3.43;;;;;;;;;;5079518;28;20804;-73
2021/11/23 10:47:01;;;;;;;8.83;6.30;;;;;;;;;;5077527;28;20452;-72
2021/11/23 10:49:42;;;;;;;7.23;3.27;;;;;;;;;;5077801;28;20487;-71
2021/11/23 10:52:29;;;;;;;4.97;3.43;;;;;;;;;;5064261;28;20896;-70
2021/11/23 10:54:58;;;;;;;7.70;3.10;;;;;;;;;;5058617;28;20456;-70
2021/11/23 10:57:26;;;;;;;6.63;3.83;;;;;;;;;;5063441;28;20525;-72
2021/11/23 10:59:57;;;;;;;6.03;3.97;;;;;;;;;;5058906;28;20471;-72
2021/11/23 11:02:25;;;;;;;11.07;4.53;;;;;;;;;;5075750;28;20513;-72
2021/11/23 11:04:55;;;;;;;10.43;4.00;;;;;;;;;;5076753;28;20500;-72
2021/11/23 11:07:24;;;;;;;9.47;3.60;;;;;;;;;;5072757;28;20461;-71
2021/11/23 11:09:58;;;;;;;4.63;3.40;;;;;;;;;;5062505;28;20874;-72
2021/11/23 11:12:30;;;;;;;5.93;4.50;;;;;;;;;;5066763;28;20741;-73
2021/11/23 11:15:04;;;;;;;7.27;5.10;;;;;;;;;;5067424;28;20465;-73
2021/11/23 11:17:34;;;;;;;9.70;6.23;;;;;;;;;;5063921;28;20543;-73
2021/11/23 11:20:03;;;;;;;12.40;8.10;;;;;;;;;;5074756;28;20525;-73
2021/11/23 11:22:35;;;;;;;7.40;5.10;;;;;;;;;;5067807;28;20475;-73
2021/11/23 11:25:12;;;;;;;6.80;4.83;;;;;;;;;;5070976;28;20452;-71
2021/11/23 11:27:43;;;;;;;10.43;3.90;;;;;;;;;;5077639;28;20452;-72
2021/11/23 11:33:14;;;;;;;5.87;3.20;;;;;;;;;;5077195;28;20492;-72
2021/11/23 11:35:44;;;;;;;8.20;5.13;;;;;;;;;;5075069;28;20461;-73
2021/11/23 11:38:27;;;;;;;10.30;6.07;;;;;;;;;;5073617;28;20755;-71
2021/11/23 11:40:55;;;;;;;8.80;4.10;;;;;;;;;;5073338;28;20478;-72
2021/11/23 11:43:33;;;;;;;10.60;4.90;;;;;;;;;;5074809;28;20464;-72
2021/11/23 11:46:03;;;;;;;7.87;4.50;;;;;;;;;;5067289;28;20962;-72
2021/11/23 11:48:55;;;;;;;5.80;3.73;;;;;;;;;;5067458;28;20478;-72
2021/11/23 11:51:32;;;;;;;10.63;4.33;;;;;;;;;;5072224;28;20476;-72
2021/11/23 11:54:01;;;;;;;10.60;2.63;;;;;;;;;;5071889;28;20463;-71
2021/11/23 11:56:42;;;;;;;5.07;3.90;;;;;;;;;;5077222;28;20484;-72
2021/11/23 11:59:26;;;;;;;3.53;2.60;;;;;;;;;;5058758;28;20908;-72
2021/11/23 12:01:59;;;;;;;5.97;2.90;;;;;;;;;;5056611;28;20467;-71
2021/11/23 12:04:31;;;;;;;8.53;3.10;;;;;;;;;;5057905;28;20453;-72
2021/11/23 12:07:14;;;;;;;6.07;4.20;;;;;;;;;;5056976;28;20943;-72
2021/11/23 12:09:44;;;;;;;13.13;3.57;;;;;;;;;;5069334;28;20513;-72
2021/11/23 12:12:29;;;;;;;5.97;3.10;;;;;;;;;;5074864;28;20496;-71
2021/11/23 12:15:08;;;;;;;7.23;3.17;;;;;;;;;;5068812;28;20464;-72
2021/11/23 12:17:43;;;;;;;7.23;4.07;;;;;;;;;;5070173;28;20531;-71
2021/11/23 12:20:18;;;;;;;10.67;4.23;;;;;;;;;;5074082;28;20475;-71
2021/11/23 12:22:53;;;;;;;8.40;4.40;;;;;;;;;;5066311;28;20523;-72
2021/11/23 12:25:25;;;;;;;10.80;5.17;;;;;;;;;;5072481;28;20558;-72
2021/11/23 12:27:53;;;;;;;7.90;4.97;;;;;;;;;;5062886;28;20458;-72
2021/11/23 12:30:22;;;;;;;6.60;3.23;;;;;;;;;;5067898;28;20773;-71
2021/11/23 12:33:00;;;;;;;7.27;4.20;;;;;;;;;;5076457;28;20542;-73
2021/11/23 12:35:37;;;;;;;8.70;3.73;;;;;;;;;;5068475;28;20522;-71
2021/11/23 12:38:05;;;;;;;5.50;4.30;;;;;;;;;;5062478;28;20757;-73
2021/11/23 12:40:34;;;;;;;9.37;6.30;;;;;;;;;;5058797;28;20485;-71
2021/11/23 12:43:06;;;;;;;3.33;2.57;;;;;;;;;;5065594;28;20453;-74
2021/11/23 12:45:46;;;;;;;8.40;4.57;;;;;;;;;;5076840;28;20452;-71
2021/11/23 12:48:30;;;;;;;6.40;3.60;;;;;;;;;;5069926;28;20475;-71
2021/11/23 12:50:59;;;;;;;6.93;3.17;;;;;;;;;;5057948;28;20938;-71
2021/11/23 12:53:42;;;;;;;7.37;3.87;;;;;;;;;;5067822;28;20491;-72
2021/11/23 12:56:23;;;;;;;6.00;3.03;;;;;;;;;;5067910;28;20462;-73
2021/11/23 12:58:52;;;;;;;5.83;3.67;;;;;;;;;;5059789;28;20556;-73
2021/11/23 13:01:36;;;;;;;5.60;3.27;;;;;;;;;;5064991;28;20497;-72
2021/11/23 13:04:19;;;;;;;4.60;2.80;;;;;;;;;;5065677;28;20537;-73
2021/11/23 13:07:02;;;;;;;6.67;3.53;;;;;;;;;;5056552;28;20543;-72
2021/11/23 13:09:53;;;;;;;5.57;3.53;;;;;;;;;;5056367;28;21019;-72
2021/11/23 13:12:25;;;;;;;9.83;5.13;;;;;;;;;;5061997;28;20473;-72
2021/11/23 13:14:55;;;;;;;7.60;4.00;;;;;;;;;;5055907;28;20880;-73
2021/11/23 13:17:39;;;;;;;4.17;3.23;;;;;;;;;;5058079;28;20931;-73
2021/11/23 13:20:08;;;;;;;3.07;2.20;;;;;;;;;;5075161;28;20723;-72
2021/11/23 13:22:40;;;;;;;9.37;2.33;;;;;;;;;;5059382;28;20470;-72
2021/11/23 13:25:10;;;;;;;2.73;1.40;;;;;;;;;;5053809;28;20481;-72
2021/11/23 13:27:40;;;;;;;13.67;3.67;;;;;;;;;;5065565;28;20463;-73
2021/11/23 13:30:33;;;;;;;5.93;3.10;;;;;;;;;;5075806;28;20461;-72
2021/11/23 13:33:08;;;;;;;6.17;3.50;;;;;;;;;;5072744;28;20534;-73
2021/11/23 13:35:41;;;;;;;7.93;5.73;;;;;;;;;;5076120;28;20495;-72
2021/11/23 13:38:26;;;;;;;4.70;2.57;;;;;;;;;;5076579;28;20961;-71
2021/11/23 13:41:02;;;;;;;5.37;3.03;;;;;;;;;;5073687;28;21073;-73
2021/11/23 13:44:02;;;;;;;4.10;2.40;;;;;;;;;;5078353;28;20528;-72
2021/11/23 13:46:50;;;;;;;4.37;3.00;;;;;;;;;;5043815;28;20478;-73
2021/11/23 13:49:28;;;;;;;6.90;2.60;;;;;;;;;;5077309;28;20465;-72
2021/11/23 13:52:15;;;;;;;3.37;2.30;;;;;;;;;;5068870;28;20853;-72
2021/11/23 13:54:43;;;;;;;7.20;2.40;;;;;;;;;;5066494;28;20461;-71
2021/11/23 13:57:17;;;;;;;6.47;3.30;;;;;;;;;;5060977;28;20475;-71
2021/11/23 13:59:53;;;;;;;6.47;4.10;;;;;;;;;;5061725;28;21062;-71
2021/11/23 14:02:20;;;;;;;6.00;2.13;;;;;;;;;;5065042;28;20504;-72
2021/11/23 14:04:53;;;;;;;3.37;2.50;;;;;;;;;;5069570;28;20638;-72
2021/11/23 14:07:24;;;;;;;7.10;2.77;;;;;;;;;;5056106;28;20481;-71
2021/11/23 14:10:04;;;;;;;5.33;3.23;;;;;;;;;;5062253;28;20456;-72
2021/11/23 14:12:46;;;;;;;4.20;2.37;;;;;;;;;;5069315;28;20495;-72
2021/11/23 14:15:20;;;;;;;7.30;4.40;;;;;;;;;;5078887;28;20566;-72
2021/11/23 14:18:02;;;;;;;6.07;4.50;;;;;;;;;;5079975;28;20448;-73
2021/11/23 14:20:34;;;;;;;7.53;2.60;;;;;;;;;;5080180;28;20458;-73
2021/11/23 14:23:06;;;;;;;5.40;2.53;;;;;;;;;;5080159;28;20465;-73
2021/11/23 14:25:47;;;;;;;5.67;3.13;;;;;;;;;;5079028;28;20508;-74
2021/11/23 14:31:25;;;;;;;7.87;4.50;;;;;;;;;;5058495;28;20465;-73
2021/11/23 14:34:06;;;;;;;5.87;3.43;;;;;;;;;;5059774;28;20451;-73
2021/11/23 14:36:40;;;;;;;9.73;4.30;;;;;;;;;;5074635;28;20567;-74
2021/11/23 14:39:42;;;;;;;5.20;2.70;;;;;;;;;;5078438;28;20792;-73
2021/11/23 14:42:17;;;;;;;5.80;3.80;;;;;;;;;;5077859;28;20550;-74
2021/11/23 14:45:12;;;;;;;10.17;4.10;;;;;;;;;;5070648;28;20448;-73
2021/11/23 14:47:42;;;;;;;4.53;2.60;;;;;;;;;;5059845;28;20760;-73
2021/11/23 14:50:10;;;;;;;10.50;4.70;;;;;;;;;;5068707;28;20896;-72
2021/11/23 14:52:47;;;;;;;6.97;2.30;;;;;;;;;;5074675;28;20477;-75
2021/11/23 14:55:16;;;;;;;6.73;3.20;;;;;;;;;;5058277;28;20564;-71
2021/11/23 14:57:44;;;;;;;6.73;2.80;;;;;;;;;;5065915;28;20448;-71
2021/11/23 15:00:17;;;;;;;8.27;4.70;;;;;;;;;;5071477;28;20457;-72
2021/11/23 15:02:55;;;;;;;6.03;2.33;;;;;;;;;;5057593;28;20846;-72
2021/11/23 15:05:25;;;;;;;6.97;3.90;;;;;;;;;;5073285;28;20460;-72
2021/11/23 15:08:26;;;;;;;;;;;;;;;;;;;;;
2021/11/23 15:13:53;;;;;;;8.90;5.00;;;;;;;;;;5077087;28;20460;-73
2021/11/23 15:16:37;;;;;;;12.03;6.80;;;;;;;;;;5072918;28;20441;-73